Colton, Ohio
Current Conditions -  °F | °C
As of 12:11 PM on Saturday 25 Oct 2014 (Local Time) from KTOL Reporting Station
Haze Haze  
Wind Chill: 61°   Ceiling: 1600
Heat Index: 61°   Visibility: 6mi
Dew Point: 54°   Wind: 15mph
Humidity: 77%   Direction: 270°W
Pressure: 29.85"   Gusts: NA
Location:  41.46°N, 83.95°W
Report Text: KTOL 251611Z 27013KT 6SM HZ OVC016 16/12 A2985 RMK AO2
Loading
Personal Weather Stations






























Interactive Weather Map
Tropical Storm Tracking
New forecast layout! Learn more

10-Day Weather Forecast

Advertisements
Track Severe Weather on mobile